createdAt,value
2016-09-19T00:00:03.650Z,16.52
2016-09-19T00:01:03.322Z,16.56
2016-09-19T00:02:03.941Z,16.56
2016-09-19T00:03:03.309Z,16.58
2016-09-19T00:04:03.300Z,16.58
2016-09-19T00:05:03.603Z,16.55
2016-09-19T00:06:03.590Z,16.5
2016-09-19T00:07:03.271Z,16.5
2016-09-19T00:08:03.885Z,16.52
2016-09-19T00:09:03.563Z,16.5
2016-09-19T00:10:03.245Z,16.55
2016-09-19T00:11:03.236Z,16.52
2016-09-19T00:12:03.537Z,16.45
2016-09-19T00:13:03.218Z,16.48
2016-09-19T00:14:03.211Z,16.42
2016-09-19T00:15:03.522Z,16.45
2016-09-19T00:16:03.501Z,16.49
2016-09-19T00:17:03.191Z,16.49
2016-09-19T00:18:03.498Z,16.44
2016-09-19T00:19:03.476Z,16.45
2016-09-19T00:20:03.154Z,16.42
2016-09-19T00:21:03.145Z,16.42
2016-09-19T00:22:03.447Z,16.48
2016-09-19T00:23:03.442Z,16.4
2016-09-19T00:24:03.482Z,16.44
2016-09-19T00:25:03.419Z,16.31
2016-09-19T00:26:03.098Z,16.44
2016-09-19T00:27:03.399Z,16.42
2016-09-19T00:28:03.082Z,16.34
2016-09-19T00:29:03.072Z,16.45
2016-09-19T00:30:03.376Z,16.38
2016-09-19T00:31:03.060Z,16.34
2016-09-19T00:32:03.041Z,16.41
2016-09-19T00:33:03.084Z,16.41
2016-09-19T00:34:03.224Z,16.41
2016-09-19T00:35:03.332Z,16.38
2016-09-19T00:36:03.007Z,16.37
2016-09-19T00:37:03.624Z,16.34
2016-09-19T00:38:03.301Z,16.35
2016-09-19T00:39:02.982Z,16.35
2016-09-19T00:40:03.286Z,16.38
2016-09-19T00:41:03.290Z,16.35
2016-09-19T00:42:02.961Z,16.4
2016-09-19T00:43:02.943Z,16.4
2016-09-19T00:44:02.930Z,16.41
2016-09-19T00:45:02.924Z,16.38
2016-09-19T00:46:02.916Z,16.37
2016-09-19T00:47:02.915Z,16.33
2016-09-19T00:48:02.899Z,16.33
2016-09-19T00:49:02.893Z,16.37
2016-09-19T00:50:02.888Z,16.27
2016-09-19T00:51:03.182Z,16.27
2016-09-19T00:52:02.862Z,16.31
2016-09-19T00:53:02.888Z,16.31
2016-09-19T00:54:03.156Z,16.3
2016-09-19T00:55:02.833Z,16.34
2016-09-19T00:56:03.458Z,16.25
2016-09-19T00:57:03.136Z,16.33
2016-09-19T00:58:02.808Z,16.34
2016-09-19T00:59:02.798Z,16.35
2016-09-19T01:00:03.098Z,16.31
2016-09-19T01:01:02.798Z,16.31
2016-09-19T01:02:03.083Z,16.27
2016-09-19T01:03:02.765Z,16.31
2016-09-19T01:04:03.069Z,16.3
2016-09-19T01:05:03.056Z,16.26
2016-09-19T01:06:02.738Z,16.26
2016-09-19T01:07:03.347Z,16.27
2016-09-19T01:08:03.344Z,16.22
2016-09-19T01:09:02.707Z,16.23
2016-09-19T01:10:02.704Z,16.23
2016-09-19T01:11:03.317Z,16.15
2016-09-19T01:12:02.679Z,16.3
2016-09-19T01:13:02.671Z,16.26
2016-09-19T01:14:02.968Z,16.25
2016-09-19T01:15:02.651Z,16.25
2016-09-19T01:16:02.640Z,16.2
2016-09-19T01:17:02.949Z,16.18
2016-09-19T01:18:02.625Z,16.2
2016-09-19T01:19:02.611Z,16.23
2016-09-19T01:20:02.923Z,16.15
2016-09-19T01:21:02.906Z,16.3
2016-09-19T01:22:02.902Z,16.26
2016-09-19T01:23:02.577Z,16.25
2016-09-19T01:24:02.569Z,16.23
2016-09-19T01:25:02.869Z,16.31
2016-09-19T01:26:03.176Z,16.31
2016-09-19T01:27:02.539Z,16.18
2016-09-19T01:28:02.535Z,16.15
2016-09-19T01:29:02.526Z,16.18
2016-09-19T01:30:02.846Z,16.18
2016-09-19T01:31:02.501Z,16.18
2016-09-19T01:32:03.120Z,16.16
2016-09-19T01:33:02.505Z,16.2
2016-09-19T01:34:02.476Z,16.18
2016-09-19T01:35:02.792Z,16.25
2016-09-19T01:36:02.769Z,16.18
2016-09-19T01:37:02.450Z,16.12
2016-09-19T01:38:02.439Z,16.12
2016-09-19T01:39:02.431Z,16.15
2016-09-19T01:40:02.736Z,16.09
2016-09-19T01:41:02.407Z,16.15
2016-09-19T01:42:02.400Z,16.14
2016-09-19T01:43:02.708Z,16.12
2016-09-19T01:44:03.010Z,16.11
2016-09-19T01:45:02.694Z,16.12
2016-09-19T01:46:02.676Z,16.12
2016-09-19T01:47:02.355Z,16.15
2016-09-19T01:48:02.347Z,16.07
2016-09-19T01:49:02.337Z,16.03
2016-09-19T01:50:02.325Z,16.06
2016-09-19T01:51:02.319Z,16.03
2016-09-19T01:52:02.621Z,16.09
2016-09-19T01:53:02.621Z,16.01
2016-09-19T01:54:02.621Z,16.07
2016-09-19T01:55:02.594Z,16.09
2016-09-19T01:56:02.274Z,16.03
2016-09-19T01:57:02.256Z,16.04
2016-09-19T01:58:02.253Z,16.01
2016-09-19T01:59:02.555Z,16.09
2016-09-19T02:00:02.549Z,16.01
2016-09-19T02:01:02.859Z,16.04
2016-09-19T02:02:02.533Z,15.99
2016-09-19T02:03:02.207Z,16.03
2016-09-19T02:04:02.193Z,16.04
2016-09-19T02:05:02.195Z,15.99
2016-09-19T02:06:02.492Z,16.03
2016-09-19T02:07:02.485Z,16.06
2016-09-19T02:08:02.162Z,16
2016-09-19T02:09:02.158Z,16
2016-09-19T02:10:02.144Z,15.97
2016-09-19T02:11:02.131Z,16.01
2016-09-19T02:12:02.125Z,15.99
2016-09-19T02:13:02.120Z,15.93
2016-09-19T02:14:02.419Z,16.01
2016-09-19T02:15:02.096Z,15.96
2016-09-19T02:16:02.089Z,15.92
2016-09-19T02:17:02.389Z,15.92
2016-09-19T02:18:02.060Z,16
2016-09-19T02:19:02.067Z,15.93
2016-09-19T02:20:02.373Z,15.88
2016-09-19T02:21:02.036Z,15.94
2016-09-19T02:22:02.350Z,15.92
2016-09-19T02:23:02.017Z,15.85
2016-09-19T02:24:02.060Z,15.93
2016-09-19T02:25:01.995Z,15.92
2016-09-19T02:26:01.992Z,15.84
2016-09-19T02:27:02.298Z,15.85
2016-09-19T02:28:01.972Z,15.88
2016-09-19T02:29:02.275Z,15.82
2016-09-19T02:30:01.952Z,15.86
2016-09-19T02:31:01.945Z,15.85
2016-09-19T02:32:01.932Z,15.88
2016-09-19T02:33:02.239Z,15.82
2016-09-19T02:34:02.434Z,15.88
2016-09-19T02:35:01.908Z,15.79
2016-09-19T02:36:02.211Z,15.84
2016-09-19T02:37:01.889Z,15.88
2016-09-19T02:38:02.190Z,15.85
2016-09-19T02:39:02.178Z,15.82
2016-09-19T02:40:01.867Z,15.89
2016-09-19T02:41:02.160Z,15.86
2016-09-19T02:42:02.156Z,15.89
2016-09-19T02:43:01.834Z,15.84
2016-09-19T02:44:01.820Z,15.79
2016-09-19T02:45:01.811Z,15.81
2016-09-19T02:46:02.110Z,15.78
2016-09-19T02:47:02.102Z,15.88
2016-09-19T02:48:02.100Z,15.84
2016-09-19T02:49:01.772Z,15.79
2016-09-19T02:50:01.771Z,15.84
2016-09-19T02:51:02.064Z,15.81
2016-09-19T02:52:02.065Z,15.72
2016-09-19T02:53:01.736Z,15.72
2016-09-19T02:54:01.723Z,15.78
2016-09-19T02:55:01.729Z,15.82
2016-09-19T02:56:01.709Z,15.82
2016-09-19T02:57:02.017Z,15.79
2016-09-19T02:58:01.686Z,15.79
2016-09-19T02:59:01.685Z,15.82
2016-09-19T03:00:01.672Z,15.76
2016-09-19T03:01:01.975Z,15.84
2016-09-19T03:02:01.966Z,15.86
2016-09-19T03:03:01.950Z,15.79
2016-09-19T03:04:01.953Z,15.72
2016-09-19T03:05:01.623Z,15.82
2016-09-19T03:06:01.611Z,15.75
2016-09-19T03:07:01.599Z,15.76
2016-09-19T03:08:01.591Z,15.85
2016-09-19T03:09:01.900Z,15.84
2016-09-19T03:10:01.904Z,15.74
2016-09-19T03:11:02.187Z,15.76
2016-09-19T03:12:01.556Z,15.79
2016-09-19T03:13:01.544Z,15.84
2016-09-19T03:14:01.554Z,15.76
2016-09-19T03:15:01.524Z,15.79
2016-09-19T03:16:01.514Z,15.72
2016-09-19T03:17:01.510Z,15.67
2016-09-19T03:18:01.503Z,15.7
2016-09-19T03:19:01.489Z,15.74
2016-09-19T03:20:01.476Z,15.74
2016-09-19T03:21:01.466Z,15.74
2016-09-19T03:22:01.480Z,15.63
2016-09-19T03:23:01.774Z,15.72
2016-09-19T03:24:01.450Z,15.74
2016-09-19T03:25:01.738Z,15.74
2016-09-19T03:26:01.427Z,15.72
2016-09-19T03:27:01.408Z,15.72
2016-09-19T03:28:01.738Z,15.66
2016-09-19T03:29:01.394Z,15.72
2016-09-19T03:30:02.017Z,15.64
2016-09-19T03:31:02.000Z,15.67
2016-09-19T03:32:01.362Z,15.72
2016-09-19T03:33:01.356Z,15.63
2016-09-19T03:34:01.357Z,15.64
2016-09-19T03:35:01.649Z,15.66
2016-09-19T03:36:01.639Z,15.67
2016-09-19T03:37:01.321Z,15.67
2016-09-19T03:38:01.310Z,15.64
2016-09-19T03:39:01.295Z,15.63
2016-09-19T03:40:01.298Z,15.64
2016-09-19T03:41:01.283Z,15.64
2016-09-19T03:42:01.280Z,15.72
2016-09-19T03:43:01.260Z,15.66
2016-09-19T03:44:01.880Z,15.63
2016-09-19T03:45:01.241Z,15.67
2016-09-19T03:46:01.230Z,15.61
2016-09-19T03:47:01.219Z,15.63
2016-09-19T03:48:01.212Z,15.61
2016-09-19T03:49:01.203Z,15.68
2016-09-19T03:50:01.195Z,15.59
2016-09-19T03:51:01.492Z,15.6
2016-09-19T03:52:01.176Z,15.66
2016-09-19T03:53:01.171Z,15.6
2016-09-19T03:54:01.156Z,15.6
2016-09-19T03:55:01.473Z,15.57
2016-09-19T03:56:01.137Z,15.67
2016-09-19T03:57:01.125Z,15.64
2016-09-19T03:58:01.426Z,15.56
2016-09-19T03:59:01.419Z,15.54
2016-09-19T04:00:01.409Z,15.64
2016-09-19T04:01:01.086Z,15.68
2016-09-19T04:02:01.076Z,15.57
2016-09-19T04:03:01.065Z,15.6
2016-09-19T04:04:01.057Z,15.61
2016-09-19T04:05:01.044Z,15.6
2016-09-19T04:06:01.375Z,15.64
2016-09-19T04:07:01.038Z,15.6
2016-09-19T04:08:01.369Z,15.56
2016-09-19T04:09:01.323Z,15.6
2016-09-19T04:10:00.997Z,15.61
2016-09-19T04:11:00.991Z,15.45
2016-09-19T04:12:01.298Z,15.59
2016-09-19T04:13:01.283Z,15.57
2016-09-19T04:14:01.278Z,15.59
2016-09-19T04:15:01.261Z,15.59
2016-09-19T04:16:01.255Z,15.6
2016-09-19T04:17:01.555Z,15.51
2016-09-19T04:18:00.923Z,15.46
2016-09-19T04:19:00.913Z,15.52
2016-09-19T04:20:01.221Z,15.59
2016-09-19T04:21:01.524Z,15.56
2016-09-19T04:22:00.883Z,15.59
2016-09-19T04:23:01.523Z,15.57
2016-09-19T04:24:01.491Z,15.63
2016-09-19T04:25:01.164Z,15.56
2016-09-19T04:26:00.853Z,15.54
2016-09-19T04:27:01.148Z,15.52
2016-09-19T04:28:00.828Z,15.54
2016-09-19T04:29:00.812Z,15.57
2016-09-19T04:30:00.806Z,15.56
2016-09-19T04:31:00.809Z,15.6
2016-09-19T04:32:01.108Z,15.59
2016-09-19T04:33:00.782Z,15.56
2016-09-19T04:34:01.170Z,15.51
2016-09-19T04:35:00.760Z,15.51
2016-09-19T04:36:00.746Z,15.56
2016-09-19T04:37:00.740Z,15.51
2016-09-19T04:38:00.734Z,15.49
2016-09-19T04:39:01.035Z,15.52
2016-09-19T04:40:01.043Z,15.52
2016-09-19T04:41:00.700Z,15.51
2016-09-19T04:42:00.692Z,15.57
2016-09-19T04:43:00.994Z,15.52
2016-09-19T04:44:01.005Z,15.45
2016-09-19T04:45:00.993Z,15.49
2016-09-19T04:46:00.652Z,15.57
2016-09-19T04:47:00.661Z,15.57
2016-09-19T04:48:00.629Z,15.48
2016-09-19T04:49:00.944Z,15.52
2016-09-19T04:50:00.615Z,15.42
2016-09-19T04:51:00.614Z,15.46
2016-09-19T04:52:00.911Z,15.57
2016-09-19T04:53:00.588Z,15.45
2016-09-19T04:54:00.573Z,15.49
2016-09-19T04:55:00.878Z,15.49
2016-09-19T04:56:00.557Z,15.46
2016-09-19T04:57:00.857Z,15.48
2016-09-19T04:58:00.849Z,15.49
2016-09-19T04:59:00.839Z,15.48
2016-09-19T05:00:00.513Z,15.48
2016-09-19T05:01:01.152Z,15.46
2016-09-19T05:02:00.816Z,15.51
2016-09-19T05:03:00.487Z,15.45
2016-09-19T05:04:00.792Z,15.48
2016-09-19T05:05:00.784Z,15.48
2016-09-19T05:06:00.457Z,15.45
2016-09-19T05:07:00.445Z,15.46
2016-09-19T05:08:00.440Z,15.48
2016-09-19T05:09:00.743Z,15.48
2016-09-19T05:10:00.416Z,15.42
2016-09-19T05:11:00.414Z,15.45
2016-09-19T05:12:00.396Z,15.43
2016-09-19T05:13:00.395Z,15.39
2016-09-19T05:14:00.379Z,15.33
2016-09-19T05:15:00.683Z,15.43
2016-09-19T05:16:00.364Z,15.41
2016-09-19T05:17:00.353Z,15.39
2016-09-19T05:18:00.656Z,15.39
2016-09-19T05:19:00.330Z,15.42
2016-09-19T05:20:00.948Z,15.39
2016-09-19T05:21:00.315Z,15.39
2016-09-19T05:22:00.632Z,15.39
2016-09-19T05:23:00.629Z,15.33
2016-09-19T05:24:00.604Z,15.43
2016-09-19T05:25:00.904Z,15.33
2016-09-19T05:26:00.579Z,15.38
2016-09-19T05:27:00.253Z,15.43
2016-09-19T05:28:00.559Z,15.33
2016-09-19T05:29:00.553Z,15.39
2016-09-19T05:30:00.219Z,15.43
2016-09-19T05:31:00.215Z,15.43
2016-09-19T05:32:00.199Z,15.43
2016-09-19T05:33:00.189Z,15.38
2016-09-19T05:34:00.189Z,15.46
2016-09-19T05:35:00.487Z,15.33
2016-09-19T05:36:00.167Z,15.45
2016-09-19T05:37:00.466Z,15.43
2016-09-19T05:38:00.465Z,15.46
2016-09-19T05:39:00.135Z,15.43
2016-09-19T05:40:00.441Z,15.46
2016-09-19T05:41:00.112Z,15.48
2016-09-19T05:42:00.419Z,15.42
2016-09-19T05:43:00.410Z,15.45
2016-09-19T05:44:00.084Z,15.38
2016-09-19T05:45:00.401Z,15.45
2016-09-19T05:46:00.384Z,15.39
2016-09-19T05:47:00.064Z,15.45
2016-09-19T05:48:00.361Z,15.31
2016-09-19T05:49:00.044Z,15.46
2016-09-19T05:50:00.342Z,15.41
2016-09-19T05:51:00.332Z,15.38
2016-09-19T05:52:00.325Z,15.35
2016-09-19T05:53:00.327Z,15.38
2016-09-19T05:54:00.311Z,15.45
2016-09-19T05:54:59.976Z,15.51
2016-09-19T05:56:00.285Z,15.43
2016-09-19T05:56:59.961Z,15.43
2016-09-19T05:57:59.954Z,15.42
2016-09-19T05:58:59.948Z,15.48
2016-09-19T05:59:59.935Z,15.45
2016-09-19T06:01:00.232Z,15.48
2016-09-19T06:02:00.221Z,15.43
2016-09-19T06:02:59.898Z,15.43
2016-09-19T06:03:59.903Z,15.48
2016-09-19T06:04:59.879Z,15.51
2016-09-19T06:05:59.872Z,15.46
2016-09-19T06:06:59.863Z,15.45
2016-09-19T06:07:59.851Z,15.48
2016-09-19T06:09:00.157Z,15.48
2016-09-19T06:09:59.833Z,15.46
2016-09-19T06:11:00.161Z,15.54
2016-09-19T06:12:00.453Z,15.57
2016-09-19T06:13:00.132Z,15.51
2016-09-19T06:13:59.796Z,15.42
2016-09-19T06:14:59.787Z,15.54
2016-09-19T06:15:59.775Z,15.48
2016-09-19T06:16:59.773Z,15.52
2016-09-19T06:18:00.072Z,15.49
2016-09-19T06:18:59.749Z,15.51
2016-09-19T06:19:59.735Z,15.52
2016-09-19T06:20:59.726Z,15.54
2016-09-19T06:21:59.716Z,15.6
2016-09-19T06:22:59.713Z,15.56
2016-09-19T06:24:00.010Z,15.49
2016-09-19T06:25:00.050Z,15.56
2016-09-19T06:25:59.678Z,15.54
2016-09-19T06:26:59.667Z,15.61
2016-09-19T06:27:59.664Z,15.56
2016-09-19T06:28:59.960Z,15.43
2016-09-19T06:29:59.640Z,15.52
2016-09-19T06:30:59.955Z,15.67
2016-09-19T06:31:59.950Z,15.54
2016-09-19T06:32:59.926Z,15.61
2016-09-19T06:34:00.112Z,15.67
2016-09-19T06:34:59.597Z,15.6
2016-09-19T06:35:59.597Z,15.52
2016-09-19T06:36:59.885Z,15.59
2016-09-19T06:37:59.876Z,15.56
2016-09-19T06:38:59.860Z,15.66
2016-09-19T06:39:59.856Z,15.57
2016-09-19T06:40:59.842Z,15.64
2016-09-19T06:41:59.523Z,15.6
2016-09-19T06:42:59.829Z,15.6
2016-09-19T06:43:59.820Z,15.7
2016-09-19T06:45:00.136Z,15.64
2016-09-19T06:45:59.797Z,15.66
2016-09-19T06:46:59.484Z,15.68
2016-09-19T06:47:59.465Z,15.64
2016-09-19T06:48:59.456Z,15.7
2016-09-19T06:49:59.761Z,15.67
2016-09-19T06:50:59.449Z,15.68
2016-09-19T06:51:59.426Z,15.66
2016-09-19T06:52:59.425Z,15.74
2016-09-19T06:54:00.032Z,15.72
2016-09-19T06:54:59.709Z,15.72
2016-09-19T06:55:59.401Z,15.74
2016-09-19T06:56:59.707Z,15.75
2016-09-19T06:57:59.714Z,15.76
2016-09-19T06:58:59.361Z,15.72
2016-09-19T06:59:59.351Z,15.74
2016-09-19T07:00:59.344Z,15.68
2016-09-19T07:01:59.344Z,15.76
2016-09-19T07:02:59.328Z,15.74
2016-09-19T07:03:59.316Z,15.74
2016-09-19T07:04:59.306Z,15.72
2016-09-19T07:05:59.301Z,15.78
2016-09-19T07:06:59.599Z,15.7
2016-09-19T07:07:59.275Z,15.68
2016-09-19T07:08:59.270Z,15.81
2016-09-19T07:09:59.257Z,15.86
2016-09-19T07:10:59.247Z,15.78
2016-09-19T07:11:59.239Z,15.79
2016-09-19T07:12:59.544Z,15.88
2016-09-19T07:13:59.218Z,15.86
2016-09-19T07:14:59.211Z,15.93
2016-09-19T07:15:59.195Z,15.92
2016-09-19T07:16:59.816Z,15.94
2016-09-19T07:17:59.189Z,15.96
2016-09-19T07:18:59.485Z,15.97
2016-09-19T07:19:59.486Z,16
2016-09-19T07:20:59.150Z,16.06
2016-09-19T07:21:59.468Z,16.06
2016-09-19T07:22:59.765Z,16.09
2016-09-19T07:23:59.130Z,16.07
2016-09-19T07:24:59.172Z,16.12
2016-09-19T07:25:59.107Z,16.14
2016-09-19T07:26:59.103Z,16.15
2016-09-19T07:27:59.089Z,16.16
2016-09-19T07:28:59.086Z,16.16
2016-09-19T07:29:59.072Z,16.22
2016-09-19T07:30:59.064Z,16.23
2016-09-19T07:31:59.055Z,16.2
2016-09-19T07:32:59.044Z,16.23
2016-09-19T07:33:59.034Z,16.31
2016-09-19T07:34:59.029Z,16.23
2016-09-19T07:35:59.013Z,16.31
2016-09-19T07:36:59.328Z,16.3
2016-09-19T07:37:59.315Z,16.41
2016-09-19T07:38:59.308Z,16.34
2016-09-19T07:39:58.983Z,16.49
2016-09-19T07:40:58.993Z,16.53
2016-09-19T07:41:59.283Z,16.5
2016-09-19T07:42:59.269Z,16.58
2016-09-19T07:43:58.949Z,16.62
2016-09-19T07:44:59.263Z,16.59
2016-09-19T07:45:59.251Z,16.56
2016-09-19T07:46:59.233Z,16.62
2016-09-19T07:47:59.223Z,16.63
2016-09-19T07:48:59.216Z,16.73
2016-09-19T07:49:59.525Z,16.68
2016-09-19T07:50:58.888Z,16.73
2016-09-19T07:51:59.187Z,16.77
2016-09-19T07:52:58.871Z,16.86
2016-09-19T07:53:58.860Z,16.67
2016-09-19T07:54:59.163Z,16.75
2016-09-19T07:55:58.846Z,16.7
2016-09-19T07:56:58.834Z,16.8
2016-09-19T07:57:58.823Z,16.77
2016-09-19T07:58:58.819Z,16.77
2016-09-19T07:59:59.436Z,16.81
2016-09-19T08:00:58.800Z,16.89
2016-09-19T08:01:58.793Z,16.88
2016-09-19T08:02:58.784Z,16.75
2016-09-19T08:03:58.776Z,16.68
2016-09-19T08:04:59.076Z,16.71
2016-09-19T08:05:58.765Z,16.71
2016-09-19T08:06:58.755Z,16.56
2016-09-19T08:07:59.055Z,16.62
2016-09-19T08:08:58.734Z,16.56
2016-09-19T08:09:59.035Z,16.8
2016-09-19T08:10:59.030Z,16.88
2016-09-19T08:11:59.351Z,16.86
2016-09-19T08:12:58.700Z,16.81
2016-09-19T08:13:59.008Z,16.86
2016-09-19T08:14:58.691Z,16.78
2016-09-19T08:15:58.677Z,16.78
2016-09-19T08:16:58.663Z,16.78
2016-09-19T08:17:58.662Z,16.83
2016-09-19T08:18:59.281Z,16.96
2016-09-19T08:19:58.973Z,17.26
2016-09-19T08:20:59.263Z,17.5
2016-09-19T08:21:58.626Z,17.55
2016-09-19T08:22:58.621Z,17.66
2016-09-19T08:23:58.925Z,17.59
2016-09-19T08:24:58.652Z,17.47
2016-09-19T08:25:58.595Z,17.48
2016-09-19T08:26:58.622Z,17.38
2016-09-19T08:27:58.578Z,17.32
2016-09-19T08:28:58.568Z,17.28
2016-09-19T08:29:58.564Z,17.17
2016-09-19T08:30:58.554Z,17.11
2016-09-19T08:31:58.549Z,17.1
2016-09-19T08:32:58.855Z,17.08
2016-09-19T08:33:59.168Z,16.99
2016-09-19T08:34:58.722Z,16.9
2016-09-19T08:35:59.143Z,16.85
2016-09-19T08:36:58.820Z,16.85
2016-09-19T08:37:58.494Z,16.85
2016-09-19T08:38:59.563Z,16.93
2016-09-19T08:39:58.503Z,16.85
2016-09-19T08:40:58.465Z,16.85
2016-09-19T08:41:58.782Z,16.85
2016-09-19T08:42:58.452Z,16.85
2016-09-19T08:43:58.763Z,16.86
2016-09-19T08:44:58.439Z,16.88
2016-09-19T08:45:58.426Z,16.85
2016-09-19T08:46:58.422Z,16.85
2016-09-19T08:47:58.416Z,16.86
2016-09-19T08:48:58.402Z,16.88
2016-09-19T08:49:58.395Z,16.93
2016-09-19T08:50:58.383Z,16.86
2016-09-19T08:51:58.378Z,16.92
2016-09-19T08:52:58.367Z,16.92
2016-09-19T08:53:58.362Z,16.99
2016-09-19T08:54:58.666Z,16.92
2016-09-19T08:55:58.964Z,16.96
2016-09-19T08:56:58.958Z,16.92
2016-09-19T08:57:58.335Z,17.03
2016-09-19T08:58:58.325Z,16.96
2016-09-19T08:59:58.309Z,17.04
2016-09-19T09:00:58.305Z,17.08
2016-09-19T09:01:58.680Z,17.13
2016-09-19T09:02:58.278Z,17.08
2016-09-19T09:03:58.586Z,17.08
2016-09-19T09:04:58.259Z,17.08
2016-09-19T09:05:58.257Z,17.06
2016-09-19T09:06:58.565Z,17.1
2016-09-19T09:07:58.249Z,17.11
2016-09-19T09:08:58.558Z,17.15
2016-09-19T09:09:58.226Z,17.08
2016-09-19T09:10:58.215Z,17.07
2016-09-19T09:11:58.827Z,17.08
2016-09-19T09:12:58.200Z,17.15
2016-09-19T09:13:58.505Z,17.15
2016-09-19T09:14:58.503Z,17.14
2016-09-19T09:15:58.172Z,17.11
2016-09-19T09:16:58.163Z,17.15
2016-09-19T09:17:58.784Z,17.25
2016-09-19T09:18:58.516Z,17.17
2016-09-19T09:19:58.772Z,17.26
2016-09-19T09:20:58.443Z,17.23
2016-09-19T09:21:58.134Z,17.25
2016-09-19T09:22:58.112Z,17.29
2016-09-19T09:23:58.418Z,17.3
2016-09-19T09:24:58.143Z,17.32
2016-09-19T09:25:58.091Z,17.32
2016-09-19T09:26:58.080Z,17.23
2016-09-19T09:27:58.077Z,17.29
2016-09-19T09:28:58.057Z,17.38
2016-09-19T09:29:58.366Z,17.41
2016-09-19T09:30:58.363Z,17.29
2016-09-19T09:31:58.036Z,17.33
2016-09-19T09:32:58.029Z,17.4
2016-09-19T09:33:58.334Z,17.46
2016-09-19T09:34:58.012Z,17.46
2016-09-19T09:35:58.322Z,17.54
2016-09-19T09:36:57.987Z,17.48
2016-09-19T09:37:57.989Z,17.43
2016-09-19T09:38:57.975Z,17.53
2016-09-19T09:39:57.968Z,17.53
2016-09-19T09:40:57.969Z,17.64
2016-09-19T09:41:57.954Z,17.57
2016-09-19T09:42:58.258Z,17.66
2016-09-19T09:43:58.240Z,17.69
2016-09-19T09:44:57.941Z,17.67
2016-09-19T09:45:58.540Z,17.78
2016-09-19T09:46:57.910Z,17.97
2016-09-19T09:47:57.909Z,17.97
2016-09-19T09:48:58.518Z,18.06
2016-09-19T09:49:58.198Z,18.17
2016-09-19T09:50:58.194Z,18.19
2016-09-19T09:51:57.865Z,18.13
2016-09-19T09:52:57.859Z,18.22
2016-09-19T09:53:57.847Z,18.13
2016-09-19T09:54:57.843Z,18.15
2016-09-19T09:55:57.841Z,18.27
2016-09-19T09:56:57.832Z,18.21
2016-09-19T09:57:58.136Z,18.31
2016-09-19T09:58:57.811Z,18.34
2016-09-19T09:59:58.437Z,18.34
2016-09-19T10:00:57.800Z,18.39
2016-09-19T10:01:57.790Z,18.42
2016-09-19T10:02:58.104Z,18.49
2016-09-19T10:03:57.781Z,18.61
2016-09-19T10:04:58.402Z,18.59
2016-09-19T10:05:57.766Z,18.58
2016-09-19T10:06:57.751Z,18.54
2016-09-19T10:07:58.062Z,18.67
2016-09-19T10:08:58.049Z,18.59
2016-09-19T10:09:57.734Z,18.59
2016-09-19T10:10:58.349Z,18.61
2016-09-19T10:11:58.032Z,18.65
2016-09-19T10:12:57.716Z,18.72
2016-09-19T10:13:57.711Z,18.64
2016-09-19T10:14:57.698Z,18.55
2016-09-19T10:15:58.010Z,18.55
2016-09-19T10:16:57.685Z,18.64
2016-09-19T10:17:57.983Z,18.58
2016-09-19T10:18:57.666Z,18.61
2016-09-19T10:19:57.660Z,18.72
2016-09-19T10:20:57.648Z,18.74
2016-09-19T10:21:57.655Z,18.83
2016-09-19T10:22:57.639Z,18.83
2016-09-19T10:23:57.940Z,18.92
2016-09-19T10:24:57.624Z,18.94
2016-09-19T10:25:57.929Z,18.99
2016-09-19T10:26:57.612Z,18.97
2016-09-19T10:27:57.923Z,18.98
2016-09-19T10:28:57.599Z,18.92
2016-09-19T10:29:57.594Z,18.98
2016-09-19T10:30:57.898Z,19.01
2016-09-19T10:31:58.203Z,19.14
2016-09-19T10:32:58.205Z,19.17
2016-09-19T10:33:57.561Z,19.25
2016-09-19T10:34:57.759Z,19.21
2016-09-19T10:35:57.559Z,19.35
2016-09-19T10:36:57.545Z,19.38
2016-09-19T10:37:58.175Z,19.53
2016-09-19T10:38:57.536Z,19.6
2016-09-19T10:39:57.528Z,19.7
2016-09-19T10:40:57.519Z,19.75
2016-09-19T10:41:57.822Z,19.94
2016-09-19T10:42:57.818Z,20.02
2016-09-19T10:43:57.811Z,20.05
2016-09-19T10:44:57.495Z,20.13
2016-09-19T10:45:57.485Z,20.28
2016-09-19T10:46:57.480Z,20.51
2016-09-19T10:47:58.100Z,20.62
2016-09-19T10:48:58.099Z,20.69
2016-09-19T10:49:58.085Z,20.72
2016-09-19T10:50:57.459Z,20.61
2016-09-19T10:51:57.448Z,20.39
2016-09-19T10:52:57.442Z,20.46
2016-09-19T10:53:57.751Z,20.47
2016-09-19T10:54:57.747Z,20.54
2016-09-19T10:55:57.442Z,20.66
2016-09-19T10:56:57.418Z,20.79
2016-09-19T10:57:57.417Z,20.89
2016-09-19T10:58:57.413Z,20.8
2016-09-19T10:59:57.408Z,20.77
2016-09-19T11:00:57.715Z,20.64
2016-09-19T11:01:57.714Z,20.61
2016-09-19T11:02:57.406Z,20.42
2016-09-19T11:03:57.385Z,20.38
2016-09-19T11:04:57.378Z,20.39
2016-09-19T11:05:57.686Z,20.46
2016-09-19T11:06:57.368Z,20.47
2016-09-19T11:07:57.363Z,20.46
2016-09-19T11:08:57.673Z,20.39
2016-09-19T11:09:57.354Z,20.43
2016-09-19T11:10:57.345Z,20.54
2016-09-19T11:11:57.975Z,20.58
2016-09-19T11:12:57.661Z,20.74
2016-09-19T11:13:57.336Z,20.81
2016-09-19T11:14:57.329Z,20.81
2016-09-19T11:15:57.637Z,20.83
2016-09-19T11:16:57.326Z,20.87
2016-09-19T11:17:57.325Z,20.9
2016-09-19T11:18:57.628Z,20.9
2016-09-19T11:19:57.618Z,20.87
2016-09-19T11:20:57.616Z,21.04
2016-09-19T11:21:57.302Z,21.06
2016-09-19T11:22:57.601Z,21.09
2016-09-19T11:23:57.295Z,21.05
2016-09-19T11:24:57.289Z,21.24
2016-09-19T11:25:57.283Z,21.32
2016-09-19T11:26:57.285Z,21.5
2016-09-19T11:27:57.274Z,21.72
2016-09-19T11:28:57.587Z,21.82
2016-09-19T11:29:57.581Z,21.91
2016-09-19T11:30:57.277Z,22.06
2016-09-19T11:31:57.256Z,21.94
2016-09-19T11:32:57.601Z,21.91
2016-09-19T11:33:57.251Z,22.13
2016-09-19T11:34:57.251Z,22.23
2016-09-19T11:35:57.558Z,22.35
2016-09-19T11:36:57.236Z,22.31
2016-09-19T11:37:57.240Z,22.5
2016-09-19T11:38:57.555Z,22.78
2016-09-19T11:39:57.235Z,23.04
2016-09-19T11:40:57.858Z,23.17
2016-09-19T11:41:57.228Z,23.46
2016-09-19T11:42:57.539Z,23.76
2016-09-19T11:43:57.227Z,24.07
2016-09-19T11:44:57.222Z,24.44
2016-09-19T11:45:57.223Z,24.76
2016-09-19T11:46:57.530Z,24.95
2016-09-19T11:47:57.535Z,25.27
2016-09-19T11:48:57.548Z,25.53
2016-09-19T11:49:57.239Z,25.54
2016-09-19T11:50:57.237Z,25.34
2016-09-19T11:51:57.221Z,25.2
2016-09-19T11:52:57.219Z,25.13
2016-09-19T11:53:57.533Z,25.32
2016-09-19T11:54:57.534Z,25.37
2016-09-19T11:55:57.846Z,24.98
2016-09-19T11:56:57.222Z,25.19
2016-09-19T11:57:57.537Z,25.59
2016-09-19T11:58:57.225Z,25.93
2016-09-19T11:59:57.223Z,26.35
2016-09-19T12:00:57.227Z,26.05
2016-09-19T12:01:57.555Z,26.36
2016-09-19T12:02:57.552Z,26.58
2016-09-19T12:03:57.236Z,26.89
2016-09-19T12:04:57.861Z,27.16
2016-09-19T12:05:57.861Z,27.1
2016-09-19T12:06:57.546Z,27.04
2016-09-19T12:07:57.864Z,26.72
2016-09-19T12:08:57.578Z,26.37
2016-09-19T12:09:57.244Z,26.09
2016-09-19T12:10:57.555Z,26.08
2016-09-19T12:11:57.250Z,26.21
2016-09-19T12:12:57.267Z,26.11
2016-09-19T12:13:57.565Z,26.21
2016-09-19T12:14:57.250Z,26.39
2016-09-19T12:15:57.254Z,26.15
2016-09-19T12:16:57.572Z,26.06
2016-09-19T12:17:57.580Z,25.97
2016-09-19T12:18:57.261Z,25.84
2016-09-19T12:19:57.261Z,25.97
2016-09-19T12:20:57.261Z,25.82
2016-09-19T12:21:57.591Z,25.74
2016-09-19T12:22:57.583Z,25.86
2016-09-19T12:23:57.266Z,26.39
2016-09-19T12:24:57.266Z,26.43
2016-09-19T12:25:57.266Z,26.4
2016-09-19T12:26:57.268Z,26.24
2016-09-19T12:27:57.272Z,25.97
2016-09-19T12:28:57.269Z,25.72
2016-09-19T12:29:57.270Z,25.53
2016-09-19T12:30:57.583Z,25.65
2016-09-19T12:31:57.594Z,25.83
2016-09-19T12:32:57.270Z,25.97
2016-09-19T12:33:57.280Z,26.21
2016-09-19T12:34:57.478Z,26.32
2016-09-19T12:35:57.275Z,26.47
2016-09-19T12:36:57.270Z,26.37
2016-09-19T12:37:57.586Z,26.42
2016-09-19T12:38:57.274Z,26.28
2016-09-19T12:39:57.274Z,26.08
2016-09-19T12:40:57.273Z,26.11
2016-09-19T12:41:57.591Z,26.08
2016-09-19T12:42:57.589Z,25.94
2016-09-19T12:43:57.274Z,25.89
2016-09-19T12:44:57.273Z,25.71
2016-09-19T12:45:57.589Z,25.3
2016-09-19T12:46:57.284Z,24.97
2016-09-19T12:47:57.339Z,24.69
2016-09-19T12:48:57.592Z,24.57
2016-09-19T12:49:57.276Z,24.53
2016-09-19T12:50:57.279Z,24.47
2016-09-19T12:51:57.897Z,24.17
2016-09-19T12:52:57.588Z,24.02
2016-09-19T12:53:57.275Z,23.94